sensor_id;sensor_type;location;lat;lon;timestamp;pressure;altitude;pressure_sealevel;temperature;humidity
15260;BME280;34462;51.368;12.364;2024-01-30T00:01:46;18651.50;;;-141.84;67.05
15260;BME280;34462;51.368;12.364;2024-01-30T00:04:14;18649.47;;;-141.84;67.57
15260;BME280;34462;51.368;12.364;2024-01-30T00:06:43;18684.00;;;-141.84;68.26
15260;BME280;34462;51.368;12.364;2024-01-30T00:09:12;18651.50;;;-141.84;68.36
15260;BME280;34462;51.368;12.364;2024-01-30T00:11:42;18681.97;;;-141.84;68.55
15260;BME280;34462;51.368;12.364;2024-01-30T00:14:11;18671.81;;;-141.84;68.85
15260;BME280;34462;51.368;12.364;2024-01-30T00:16:40;18655.56;;;-141.84;69.32
15260;BME280;34462;51.368;12.364;2024-01-30T00:19:08;18677.91;;;-141.84;68.90
15260;BME280;34462;51.368;12.364;2024-01-30T00:21:36;18643.38;;;-141.84;68.04
15260;BME280;34462;51.368;12.364;2024-01-30T00:24:05;18629.16;;;-141.84;67.33
15260;BME280;34462;51.368;12.364;2024-01-30T00:26:33;18679.94;;;-141.84;67.79
15260;BME280;34462;51.368;12.364;2024-01-30T00:29:03;18655.56;;;-141.84;68.32
15260;BME280;34462;51.368;12.364;2024-01-30T00:31:31;18647.44;;;-141.84;68.34
15260;BME280;34462;51.368;12.364;2024-01-30T00:34:00;18637.28;;;-141.84;66.56
15260;BME280;34462;51.368;12.364;2024-01-30T00:36:28;18590.56;;;-141.84;65.29
15260;BME280;34462;51.368;12.364;2024-01-30T00:38:57;18649.47;;;-141.84;64.04
15260;BME280;34462;51.368;12.364;2024-01-30T00:41:25;18619.00;;;-141.84;63.98
15260;BME280;34462;51.368;12.364;2024-01-30T00:43:53;18590.56;;;-141.84;64.18
15260;BME280;34462;51.368;12.364;2024-01-30T00:46:23;18614.94;;;-141.84;64.80
15260;BME280;34462;51.368;12.364;2024-01-30T00:48:51;18594.63;;;-141.84;63.26
15260;BME280;34462;51.368;12.364;2024-01-30T00:51:20;18614.94;;;-141.84;61.97
15260;BME280;34462;51.368;12.364;2024-01-30T00:53:48;18641.34;;;-141.84;61.64
15260;BME280;34462;51.368;12.364;2024-01-30T00:56:16;18629.16;;;-141.84;61.76
15260;BME280;34462;51.368;12.364;2024-01-30T00:58:45;18610.88;;;-141.84;63.35
15260;BME280;34462;51.368;12.364;2024-01-30T01:01:13;18598.69;;;-141.84;62.20
15260;BME280;34462;51.368;12.364;2024-01-30T01:03:43;18645.41;;;-141.84;60.04
15260;BME280;34462;51.368;12.364;2024-01-30T01:06:11;18649.47;;;-141.84;58.79
15260;BME280;34462;51.368;12.364;2024-01-30T01:08:39;18647.44;;;-141.84;59.54
15260;BME280;34462;51.368;12.364;2024-01-30T01:11:07;18663.69;;;-141.84;59.96
15260;BME280;34462;51.368;12.364;2024-01-30T01:13:35;18663.69;;;-141.84;60.04
15260;BME280;34462;51.368;12.364;2024-01-30T01:16:04;18619.00;;;-141.84;59.75
15260;BME280;34462;51.368;12.364;2024-01-30T01:18:32;18653.53;;;-141.84;59.42
15260;BME280;34462;51.368;12.364;2024-01-30T01:21:02;18651.50;;;-141.84;58.99
15260;BME280;34462;51.368;12.364;2024-01-30T01:23:30;18627.13;;;-141.84;57.35
15260;BME280;34462;51.368;12.364;2024-01-30T01:25:58;18673.84;;;-141.84;56.13
15260;BME280;34462;51.368;12.364;2024-01-30T01:28:28;18649.47;;;-141.84;57.51
15260;BME280;34462;51.368;12.364;2024-01-30T01:30:56;18659.63;;;-141.84;58.36
15260;BME280;34462;51.368;12.364;2024-01-30T01:33:32;18633.22;;;-141.84;58.04
15260;BME280;34462;51.368;12.364;2024-01-30T01:36:02;18627.13;;;-141.84;58.12
15260;BME280;34462;51.368;12.364;2024-01-30T01:38:30;18659.63;;;-141.84;58.11
15260;BME280;34462;51.368;12.364;2024-01-30T01:40:59;18667.75;;;-141.84;57.83
15260;BME280;34462;51.368;12.364;2024-01-30T01:43:27;18631.19;;;-141.84;58.28
15260;BME280;34462;51.368;12.364;2024-01-30T01:45:55;18681.97;;;-141.84;57.24
15260;BME280;34462;51.368;12.364;2024-01-30T01:48:24;18657.59;;;-141.84;57.39
15260;BME280;34462;51.368;12.364;2024-01-30T01:50:53;18623.06;;;-141.84;58.44
15260;BME280;34462;51.368;12.364;2024-01-30T01:53:22;18651.50;;;-141.84;58.00
15260;BME280;34462;51.368;12.364;2024-01-30T01:55:51;18643.38;;;-141.84;58.30
15260;BME280;34462;51.368;12.364;2024-01-30T01:58:21;18679.94;;;-141.84;57.96
15260;BME280;34462;51.368;12.364;2024-01-30T02:00:51;18639.31;;;-141.84;58.06
15260;BME280;34462;51.368;12.364;2024-01-30T02:03:20;18655.56;;;-141.84;56.20
15260;BME280;34462;51.368;12.364;2024-01-30T02:05:50;18667.75;;;-141.84;56.66
15260;BME280;34462;51.368;12.364;2024-01-30T02:08:19;18629.16;;;-141.84;57.70
15260;BME280;34462;51.368;12.364;2024-01-30T02:10:49;18663.69;;;-141.84;58.74
15260;BME280;34462;51.368;12.364;2024-01-30T02:13:18;18641.34;;;-141.84;56.51
15260;BME280;34462;51.368;12.364;2024-01-30T02:15:49;18637.28;;;-141.84;56.80
15260;BME280;34462;51.368;12.364;2024-01-30T02:18:20;18677.91;;;-141.84;55.87
15260;BME280;34462;51.368;12.364;2024-01-30T02:20:48;18653.53;;;-141.84;55.59
15260;BME280;34462;51.368;12.364;2024-01-30T02:23:20;18655.56;;;-141.84;56.79
15260;BME280;34462;51.368;12.364;2024-01-30T02:25:48;18667.75;;;-141.84;56.56
15260;BME280;34462;51.368;12.364;2024-01-30T02:28:16;18610.88;;;-141.84;57.97
15260;BME280;34462;51.368;12.364;2024-01-30T02:30:45;18635.25;;;-141.84;58.24
15260;BME280;34462;51.368;12.364;2024-01-30T02:33:14;18659.63;;;-141.84;58.20
15260;BME280;34462;51.368;12.364;2024-01-30T02:35:42;18635.25;;;-141.84;58.83
15260;BME280;34462;51.368;12.364;2024-01-30T02:38:10;18651.50;;;-141.84;57.89
15260;BME280;34462;51.368;12.364;2024-01-30T02:40:40;18643.38;;;-141.84;57.64
15260;BME280;34462;51.368;12.364;2024-01-30T02:43:08;18643.38;;;-141.84;58.40
15260;BME280;34462;51.368;12.364;2024-01-30T02:45:36;18608.84;;;-141.84;58.06
15260;BME280;34462;51.368;12.364;2024-01-30T02:48:06;18651.50;;;-141.84;58.42
15260;BME280;34462;51.368;12.364;2024-01-30T02:50:34;18647.44;;;-141.84;58.33
15260;BME280;34462;51.368;12.364;2024-01-30T02:53:03;18647.44;;;-141.84;57.45
15260;BME280;34462;51.368;12.364;2024-01-30T02:55:31;18637.28;;;-141.84;57.59
15260;BME280;34462;51.368;12.364;2024-01-30T02:58:01;18659.63;;;-141.84;59.12
15260;BME280;34462;51.368;12.364;2024-01-30T03:00:29;18623.06;;;-141.84;58.11
15260;BME280;34462;51.368;12.364;2024-01-30T03:02:57;18663.69;;;-141.84;57.48
15260;BME280;34462;51.368;12.364;2024-01-30T03:05:26;18637.28;;;-141.84;58.46
15260;BME280;34462;51.368;12.364;2024-01-30T03:07:54;18631.19;;;-141.84;59.89
15260;BME280;34462;51.368;12.364;2024-01-30T03:10:23;18625.09;;;-141.84;59.41
15260;BME280;34462;51.368;12.364;2024-01-30T03:12:51;18600.72;;;-141.84;59.57
15260;BME280;34462;51.368;12.364;2024-01-30T03:15:21;18663.69;;;-141.84;58.80
15260;BME280;34462;51.368;12.364;2024-01-30T03:17:49;18677.91;;;-141.84;59.55
15260;BME280;34462;51.368;12.364;2024-01-30T03:20:18;18637.28;;;-141.84;59.95
15260;BME280;34462;51.368;12.364;2024-01-30T03:22:46;18623.06;;;-141.84;59.86
15260;BME280;34462;51.368;12.364;2024-01-30T03:25:14;18655.56;;;-141.84;59.60
15260;BME280;34462;51.368;12.364;2024-01-30T03:27:42;18669.78;;;-141.84;58.85
15260;BME280;34462;51.368;12.364;2024-01-30T03:30:11;18619.00;;;-141.84;58.04
15260;BME280;34462;51.368;12.364;2024-01-30T03:32:40;18645.41;;;-141.84;59.09
15260;BME280;34462;51.368;12.364;2024-01-30T03:35:09;18614.94;;;-141.84;57.87
15260;BME280;34462;51.368;12.364;2024-01-30T03:37:38;18598.69;;;-141.84;59.27
15260;BME280;34462;51.368;12.364;2024-01-30T03:40:07;18643.38;;;-141.84;59.99
15260;BME280;34462;51.368;12.364;2024-01-30T03:42:36;18633.22;;;-141.84;60.79
15260;BME280;34462;51.368;12.364;2024-01-30T03:45:05;18596.66;;;-141.84;61.23
15260;BME280;34462;51.368;12.364;2024-01-30T03:47:34;18608.84;;;-141.84;59.69
15260;BME280;34462;51.368;12.364;2024-01-30T03:50:04;18627.13;;;-141.84;59.57
15260;BME280;34462;51.368;12.364;2024-01-30T03:52:33;18619.00;;;-141.84;59.36
15260;BME280;34462;51.368;12.364;2024-01-30T03:55:01;18610.88;;;-141.84;59.07
15260;BME280;34462;51.368;12.364;2024-01-30T03:57:29;18643.38;;;-141.84;58.00
15260;BME280;34462;51.368;12.364;2024-01-30T03:59:58;18641.34;;;-141.84;58.56
15260;BME280;34462;51.368;12.364;2024-01-30T04:02:29;18623.06;;;-141.84;59.80
15260;BME280;34462;51.368;12.364;2024-01-30T04:04:57;18619.00;;;-141.84;58.82
15260;BME280;34462;51.368;12.364;2024-01-30T04:07:27;18635.25;;;-141.84;58.83
15260;BME280;34462;51.368;12.364;2024-01-30T04:09:56;18608.84;;;-141.84;58.31
15260;BME280;34462;51.368;12.364;2024-01-30T04:12:24;18627.13;;;-141.84;57.33
15260;BME280;34462;51.368;12.364;2024-01-30T04:14:52;18616.97;;;-141.84;57.84
15260;BME280;34462;51.368;12.364;2024-01-30T04:17:21;18614.94;;;-141.84;56.77
15260;BME280;34462;51.368;12.364;2024-01-30T04:19:49;18625.09;;;-141.84;56.86
15260;BME280;34462;51.368;12.364;2024-01-30T04:22:17;18621.03;;;-141.84;57.37
15260;BME280;34462;51.368;12.364;2024-01-30T04:24:47;18661.66;;;-141.84;58.11
15260;BME280;34462;51.368;12.364;2024-01-30T04:27:15;18633.22;;;-141.84;59.02
15260;BME280;34462;51.368;12.364;2024-01-30T04:29:43;18639.31;;;-141.84;57.55
15260;BME280;34462;51.368;12.364;2024-01-30T04:32:12;18635.25;;;-141.84;56.98
15260;BME280;34462;51.368;12.364;2024-01-30T04:34:40;18643.38;;;-141.84;56.89
15260;BME280;34462;51.368;12.364;2024-01-30T04:37:08;18635.25;;;-141.84;57.44
15260;BME280;34462;51.368;12.364;2024-01-30T04:39:37;18651.50;;;-141.84;57.74
15260;BME280;34462;51.368;12.364;2024-01-30T04:42:06;18623.06;;;-141.84;57.25
15260;BME280;34462;51.368;12.364;2024-01-30T04:44:35;18645.41;;;-141.84;56.15
15260;BME280;34462;51.368;12.364;2024-01-30T04:47:04;18631.19;;;-141.84;57.02
15260;BME280;34462;51.368;12.364;2024-01-30T04:49:35;18649.47;;;-141.84;56.63
15260;BME280;34462;51.368;12.364;2024-01-30T04:52:04;18659.63;;;-141.84;55.99
15260;BME280;34462;51.368;12.364;2024-01-30T04:54:33;18635.25;;;-141.84;57.00
15260;BME280;34462;51.368;12.364;2024-01-30T04:57:02;18627.13;;;-141.84;57.41
15260;BME280;34462;51.368;12.364;2024-01-30T04:59:32;18635.25;;;-141.84;56.65
15260;BME280;34462;51.368;12.364;2024-01-30T05:02:00;18659.63;;;-141.84;56.09
15260;BME280;34462;51.368;12.364;2024-01-30T05:04:28;18686.03;;;-141.84;55.35
15260;BME280;34462;51.368;12.364;2024-01-30T05:06:57;18659.63;;;-141.84;55.07
15260;BME280;34462;51.368;12.364;2024-01-30T05:09:25;18649.47;;;-141.84;55.38
15260;BME280;34462;51.368;12.364;2024-01-30T05:11:53;18665.72;;;-141.84;54.68
15260;BME280;34462;51.368;12.364;2024-01-30T05:14:21;18629.16;;;-141.84;55.30
15260;BME280;34462;51.368;12.364;2024-01-30T05:16:51;18639.31;;;-141.84;55.67
15260;BME280;34462;51.368;12.364;2024-01-30T05:19:19;18655.56;;;-141.84;54.57
15260;BME280;34462;51.368;12.364;2024-01-30T05:21:50;18673.84;;;-141.84;55.44
15260;BME280;34462;51.368;12.364;2024-01-30T05:24:18;18673.84;;;-141.84;55.18
15260;BME280;34462;51.368;12.364;2024-01-30T05:26:47;18621.03;;;-141.84;55.57
15260;BME280;34462;51.368;12.364;2024-01-30T05:29:18;18645.41;;;-141.84;56.67
15260;BME280;34462;51.368;12.364;2024-01-30T05:31:46;18614.94;;;-141.84;57.33
15260;BME280;34462;51.368;12.364;2024-01-30T05:34:16;18635.25;;;-141.84;57.18
15260;BME280;34462;51.368;12.364;2024-01-30T05:36:44;18631.19;;;-141.84;56.90
15260;BME280;34462;51.368;12.364;2024-01-30T05:39:12;18647.44;;;-141.84;56.08
15260;BME280;34462;51.368;12.364;2024-01-30T05:41:41;18643.38;;;-141.84;56.01
15260;BME280;34462;51.368;12.364;2024-01-30T05:44:09;18635.25;;;-141.84;55.86
15260;BME280;34462;51.368;12.364;2024-01-30T05:46:37;18625.09;;;-141.84;56.13
15260;BME280;34462;51.368;12.364;2024-01-30T05:49:06;18629.16;;;-141.84;56.58
15260;BME280;34462;51.368;12.364;2024-01-30T05:51:35;18598.69;;;-141.84;56.90
15260;BME280;34462;51.368;12.364;2024-01-30T05:54:04;18623.06;;;-141.84;57.10
15260;BME280;34462;51.368;12.364;2024-01-30T05:56:32;18643.38;;;-141.84;56.18
15260;BME280;34462;51.368;12.364;2024-01-30T05:59:00;18635.25;;;-141.84;55.50
15260;BME280;34462;51.368;12.364;2024-01-30T06:01:29;18647.44;;;-141.84;55.58
15260;BME280;34462;51.368;12.364;2024-01-30T06:03:57;18639.31;;;-141.84;56.44
15260;BME280;34462;51.368;12.364;2024-01-30T06:06:25;18631.19;;;-141.84;56.89
15260;BME280;34462;51.368;12.364;2024-01-30T06:08:55;18643.38;;;-141.84;55.46
15260;BME280;34462;51.368;12.364;2024-01-30T06:11:23;18667.75;;;-141.84;54.71
15260;BME280;34462;51.368;12.364;2024-01-30T06:13:51;18673.84;;;-141.84;53.42
15260;BME280;34462;51.368;12.364;2024-01-30T06:16:19;18641.34;;;-141.84;53.91
15260;BME280;34462;51.368;12.364;2024-01-30T06:18:48;18625.09;;;-141.84;54.44
15260;BME280;34462;51.368;12.364;2024-01-30T06:21:18;18681.97;;;-141.84;53.32
15260;BME280;34462;51.368;12.364;2024-01-30T06:23:46;18635.25;;;-141.84;54.34
15260;BME280;34462;51.368;12.364;2024-01-30T06:26:15;18629.16;;;-141.84;55.19
15260;BME280;34462;51.368;12.364;2024-01-30T06:28:44;18667.75;;;-141.84;55.42
15260;BME280;34462;51.368;12.364;2024-01-30T06:31:12;18655.56;;;-141.84;54.00
15260;BME280;34462;51.368;12.364;2024-01-30T06:33:40;18629.16;;;-141.84;53.46
15260;BME280;34462;51.368;12.364;2024-01-30T06:36:09;18669.78;;;-141.84;53.81
15260;BME280;34462;51.368;12.364;2024-01-30T06:38:37;18657.59;;;-141.84;53.76
15260;BME280;34462;51.368;12.364;2024-01-30T06:41:06;18667.75;;;-141.84;53.70
15260;BME280;34462;51.368;12.364;2024-01-30T06:43:36;18643.38;;;-141.84;53.57
15260;BME280;34462;51.368;12.364;2024-01-30T06:46:04;18651.50;;;-141.84;53.83
15260;BME280;34462;51.368;12.364;2024-01-30T06:48:32;18643.38;;;-141.84;53.76
15260;BME280;34462;51.368;12.364;2024-01-30T06:51:00;18647.44;;;-141.84;53.96
15260;BME280;34462;51.368;12.364;2024-01-30T06:53:29;18635.25;;;-141.84;54.91
15260;BME280;34462;51.368;12.364;2024-01-30T06:55:57;18616.97;;;-141.84;54.70
15260;BME280;34462;51.368;12.364;2024-01-30T06:58:25;18657.59;;;-141.84;54.18
15260;BME280;34462;51.368;12.364;2024-01-30T07:00:56;18647.44;;;-141.84;54.53
15260;BME280;34462;51.368;12.364;2024-01-30T07:03:24;18633.22;;;-141.84;55.98
15260;BME280;34462;51.368;12.364;2024-01-30T07:05:53;18651.50;;;-141.84;55.22
15260;BME280;34462;51.368;12.364;2024-01-30T07:08:21;18653.53;;;-141.84;54.31
15260;BME280;34462;51.368;12.364;2024-01-30T07:10:49;18669.78;;;-141.84;53.37
15260;BME280;34462;51.368;12.364;2024-01-30T07:13:17;18631.19;;;-141.84;53.44
15260;BME280;34462;51.368;12.364;2024-01-30T07:15:46;18671.81;;;-141.84;52.97
15260;BME280;34462;51.368;12.364;2024-01-30T07:18:15;18684.00;;;-141.84;52.72
15260;BME280;34462;51.368;12.364;2024-01-30T07:20:43;18698.22;;;-141.84;52.27
15260;BME280;34462;51.368;12.364;2024-01-30T07:23:14;18663.69;;;-141.84;52.92
15260;BME280;34462;51.368;12.364;2024-01-30T07:25:45;18671.81;;;-141.84;52.94
15260;BME280;34462;51.368;12.364;2024-01-30T07:28:17;18655.56;;;-141.84;52.37
15260;BME280;34462;51.368;12.364;2024-01-30T07:30:46;18659.63;;;-141.84;51.92
15260;BME280;34462;51.368;12.364;2024-01-30T07:33:16;18692.13;;;-141.84;51.98
15260;BME280;34462;51.368;12.364;2024-01-30T07:35:45;18698.22;;;-141.84;51.23
15260;BME280;34462;51.368;12.364;2024-01-30T07:38:14;18679.94;;;-141.84;51.37
15260;BME280;34462;51.368;12.364;2024-01-30T07:40:42;18659.63;;;-141.84;51.11
15260;BME280;34462;51.368;12.364;2024-01-30T07:43:10;18700.25;;;-141.84;51.51
15260;BME280;34462;51.368;12.364;2024-01-30T07:45:39;18722.63;;;-141.84;50.62
15260;BME280;34462;51.368;12.364;2024-01-30T07:48:08;18700.25;;;-141.84;50.58
15260;BME280;34462;51.368;12.364;2024-01-30T07:50:38;18692.13;;;-141.84;50.59
15260;BME280;34462;51.368;12.364;2024-01-30T07:53:06;18696.19;;;-141.84;50.33
15260;BME280;34462;51.368;12.364;2024-01-30T07:55:34;18736.84;;;-141.84;49.93
15260;BME280;34462;51.368;12.364;2024-01-30T07:58:03;18724.66;;;-141.84;50.25
15260;BME280;34462;51.368;12.364;2024-01-30T08:00:31;18700.25;;;-141.84;49.85
15260;BME280;34462;51.368;12.364;2024-01-30T08:03:00;18722.63;;;-141.84;49.77
15260;BME280;34462;51.368;12.364;2024-01-30T08:05:28;18744.97;;;-141.84;48.98
15260;BME280;34462;51.368;12.364;2024-01-30T08:07:57;18749.03;;;-141.84;48.59
15260;BME280;34462;51.368;12.364;2024-01-30T08:10:26;18747.00;;;-141.84;49.05
15260;BME280;34462;51.368;12.364;2024-01-30T08:12:54;18753.09;;;-141.84;48.31
15260;BME280;34462;51.368;12.364;2024-01-30T08:15:22;18761.22;;;-141.84;48.67
15260;BME280;34462;51.368;12.364;2024-01-30T08:17:50;18728.72;;;-141.84;49.02
15260;BME280;34462;51.368;12.364;2024-01-30T08:20:22;18781.53;;;-141.84;48.26
15260;BME280;34462;51.368;12.364;2024-01-30T08:22:51;18777.47;;;-141.84;47.58
15260;BME280;34462;51.368;12.364;2024-01-30T08:25:20;18787.63;;;-141.84;47.36
15260;BME280;34462;51.368;12.364;2024-01-30T08:27:49;18789.66;;;-141.84;47.34
15260;BME280;34462;51.368;12.364;2024-01-30T08:30:19;18751.06;;;-141.84;47.46
15260;BME280;34462;51.368;12.364;2024-01-30T08:32:47;18757.16;;;-141.84;47.43
15260;BME280;34462;51.368;12.364;2024-01-30T08:35:15;18791.69;;;-141.84;47.33
15260;BME280;34462;51.368;12.364;2024-01-30T08:37:44;18783.56;;;-141.84;47.29
15260;BME280;34462;51.368;12.364;2024-01-30T08:40:12;18805.91;;;-141.84;46.78
15260;BME280;34462;51.368;12.364;2024-01-30T08:42:42;18834.38;;;-141.84;46.19
15260;BME280;34462;51.368;12.364;2024-01-30T08:45:10;18803.88;;;-141.84;46.78
15260;BME280;34462;51.368;12.364;2024-01-30T08:47:40;18822.19;;;-141.84;46.43
15260;BME280;34462;51.368;12.364;2024-01-30T08:50:09;18816.06;;;-141.84;46.72
15260;BME280;34462;51.368;12.364;2024-01-30T08:52:37;18836.41;;;-141.84;46.38
15260;BME280;34462;51.368;12.364;2024-01-30T08:55:06;18836.41;;;-141.84;46.71
15260;BME280;34462;51.368;12.364;2024-01-30T08:57:35;18838.44;;;-141.84;46.79
15260;BME280;34462;51.368;12.364;2024-01-30T09:00:06;18814.03;;;-141.84;46.86
15260;BME280;34462;51.368;12.364;2024-01-30T09:02:36;18820.16;;;-141.84;47.12
15260;BME280;34462;51.368;12.364;2024-01-30T09:05:04;18832.34;;;-141.84;46.54
15260;BME280;34462;51.368;12.364;2024-01-30T09:07:33;18826.25;;;-141.84;46.41
15260;BME280;34462;51.368;12.364;2024-01-30T09:10:01;18830.31;;;-141.84;46.76
15260;BME280;34462;51.368;12.364;2024-01-30T09:12:30;18842.50;;;-141.84;46.33
15260;BME280;34462;51.368;12.364;2024-01-30T09:14:58;18850.63;;;-141.84;46.45
15260;BME280;34462;51.368;12.364;2024-01-30T09:17:28;18805.91;;;-141.84;46.69
15260;BME280;34462;51.368;12.364;2024-01-30T09:19:57;18901.41;;;-141.84;46.40
15260;BME280;34462;51.368;12.364;2024-01-30T09:22:26;18860.78;;;-141.84;46.39
15260;BME280;34462;51.368;12.364;2024-01-30T09:24:54;18870.94;;;-141.84;45.91
15260;BME280;34462;51.368;12.364;2024-01-30T09:27:22;18866.88;;;-141.84;46.07
15260;BME280;34462;51.368;12.364;2024-01-30T09:29:51;18872.97;;;-141.84;45.99
15260;BME280;34462;51.368;12.364;2024-01-30T09:32:19;18889.22;;;-141.84;45.94
15260;BME280;34462;51.368;12.364;2024-01-30T09:34:48;18889.22;;;-141.84;45.62
15260;BME280;34462;51.368;12.364;2024-01-30T09:37:17;18905.47;;;-141.84;45.59
15260;BME280;34462;51.368;12.364;2024-01-30T09:39:45;18907.50;;;-141.84;45.71
15260;BME280;34462;51.368;12.364;2024-01-30T09:42:26;18923.78;;;-141.84;45.23
15260;BME280;34462;51.368;12.364;2024-01-30T09:44:56;18899.38;;;-141.84;45.62
15260;BME280;34462;51.368;12.364;2024-01-30T09:47:25;18942.06;;;-141.84;45.29
15260;BME280;34462;51.368;12.364;2024-01-30T09:49:56;18911.56;;;-141.84;45.34
15260;BME280;34462;51.368;12.364;2024-01-30T09:52:25;18927.84;;;-141.84;45.50
15260;BME280;34462;51.368;12.364;2024-01-30T09:54:54;18917.66;;;-141.84;45.70
15260;BME280;34462;51.368;12.364;2024-01-30T09:57:23;18929.88;;;-141.84;45.41
15260;BME280;34462;51.368;12.364;2024-01-30T09:59:53;18950.19;;;-141.84;45.39
15260;BME280;34462;51.368;12.364;2024-01-30T10:02:22;18952.22;;;-141.84;45.88
15260;BME280;34462;51.368;12.364;2024-01-30T10:04:52;18929.88;;;-141.84;45.74
15260;BME280;34462;51.368;12.364;2024-01-30T10:07:21;18942.06;;;-141.84;45.64
15260;BME280;34462;51.368;12.364;2024-01-30T10:09:50;18956.28;;;-141.84;45.26
15260;BME280;34462;51.368;12.364;2024-01-30T10:12:19;18974.56;;;-141.84;45.32
15260;BME280;34462;51.368;12.364;2024-01-30T10:14:47;18986.75;;;-141.84;45.00
15260;BME280;34462;51.368;12.364;2024-01-30T10:17:15;18974.56;;;-141.84;45.08
15260;BME280;34462;51.368;12.364;2024-01-30T10:19:58;18996.91;;;-141.84;45.29
15260;BME280;34462;51.368;12.364;2024-01-30T10:22:28;18988.78;;;-141.84;45.29
15260;BME280;34462;51.368;12.364;2024-01-30T10:24:57;18950.19;;;-141.84;45.21
15260;BME280;34462;51.368;12.364;2024-01-30T10:27:26;18986.75;;;-141.84;45.50
15260;BME280;34462;51.368;12.364;2024-01-30T10:29:54;18986.75;;;-141.84;45.31
15260;BME280;34462;51.368;12.364;2024-01-30T10:32:23;19003.00;;;-141.84;44.84
15260;BME280;34462;51.368;12.364;2024-01-30T10:34:51;18988.78;;;-141.84;45.12
15260;BME280;34462;51.368;12.364;2024-01-30T10:37:20;18988.78;;;-141.84;45.13
15260;BME280;34462;51.368;12.364;2024-01-30T10:39:54;18988.78;;;-141.84;45.51
15260;BME280;34462;51.368;12.364;2024-01-30T10:42:26;18980.66;;;-141.84;45.30
15260;BME280;34462;51.368;12.364;2024-01-30T10:45:06;18976.59;;;-141.84;45.07
15260;BME280;34462;51.368;12.364;2024-01-30T10:47:36;19009.09;;;-141.84;45.44
15260;BME280;34462;51.368;12.364;2024-01-30T10:50:07;18988.78;;;-141.84;45.65
15260;BME280;34462;51.368;12.364;2024-01-30T10:52:39;19000.97;;;-141.84;45.16
15260;BME280;34462;51.368;12.364;2024-01-30T10:55:11;19017.25;;;-141.84;44.95
15260;BME280;34462;51.368;12.364;2024-01-30T10:57:39;19043.66;;;-141.84;44.95
15260;BME280;34462;51.368;12.364;2024-01-30T11:00:10;19017.25;;;-141.84;45.02
15260;BME280;34462;51.368;12.364;2024-01-30T11:02:43;19007.06;;;-141.84;45.47
15260;BME280;34462;51.368;12.364;2024-01-30T11:05:13;19039.59;;;-141.84;45.59
15260;BME280;34462;51.368;12.364;2024-01-30T11:07:42;19025.38;;;-141.84;45.32
15260;BME280;34462;51.368;12.364;2024-01-30T11:10:12;19039.59;;;-141.84;45.42
15260;BME280;34462;51.368;12.364;2024-01-30T11:12:42;19029.44;;;-141.84;45.28
15260;BME280;34462;51.368;12.364;2024-01-30T11:15:15;19017.25;;;-141.84;45.63
15260;BME280;34462;51.368;12.364;2024-01-30T11:17:49;19017.25;;;-141.84;46.00
15260;BME280;34462;51.368;12.364;2024-01-30T11:20:21;19033.50;;;-141.84;45.49
15260;BME280;34462;51.368;12.364;2024-01-30T11:22:52;19013.16;;;-141.84;46.17
15260;BME280;34462;51.368;12.364;2024-01-30T11:25:23;19043.66;;;-141.84;45.96
15260;BME280;34462;51.368;12.364;2024-01-30T11:27:53;19029.44;;;-141.84;46.36
15260;BME280;34462;51.368;12.364;2024-01-30T11:30:24;19053.81;;;-141.84;45.74
15260;BME280;34462;51.368;12.364;2024-01-30T11:33:02;19049.75;;;-141.84;45.98
15260;BME280;34462;51.368;12.364;2024-01-30T11:35:34;19005.03;;;-141.84;46.69
15260;BME280;34462;51.368;12.364;2024-01-30T11:38:04;19068.03;;;-141.84;46.14
15260;BME280;34462;51.368;12.364;2024-01-30T11:40:36;19061.94;;;-141.84;46.21
15260;BME280;34462;51.368;12.364;2024-01-30T11:43:07;19059.91;;;-141.84;46.50
15260;BME280;34462;51.368;12.364;2024-01-30T11:45:37;19049.75;;;-141.84;46.49
15260;BME280;34462;51.368;12.364;2024-01-30T11:48:07;19041.63;;;-141.84;46.10
15260;BME280;34462;51.368;12.364;2024-01-30T11:50:39;19047.72;;;-141.84;46.43
15260;BME280;34462;51.368;12.364;2024-01-30T11:53:08;19021.31;;;-141.84;46.55
15260;BME280;34462;51.368;12.364;2024-01-30T11:55:38;19045.69;;;-141.84;46.53
15260;BME280;34462;51.368;12.364;2024-01-30T11:58:07;19102.56;;;-141.84;46.12
15260;BME280;34462;51.368;12.364;2024-01-30T12:00:35;19096.47;;;-141.84;46.51
15260;BME280;34462;51.368;12.364;2024-01-30T12:03:04;19118.84;;;-141.84;46.09
15260;BME280;34462;51.368;12.364;2024-01-30T12:05:34;19102.56;;;-141.84;45.75
15260;BME280;34462;51.368;12.364;2024-01-30T12:08:05;19167.59;;;-141.84;45.83
15260;BME280;34462;51.368;12.364;2024-01-30T12:10:34;19094.44;;;-141.84;45.85
15260;BME280;34462;51.368;12.364;2024-01-30T12:13:04;19104.59;;;-141.84;45.91
15260;BME280;34462;51.368;12.364;2024-01-30T12:15:32;19088.34;;;-141.84;45.71
15260;BME280;34462;51.368;12.364;2024-01-30T12:18:08;19141.19;;;-141.84;45.83
15260;BME280;34462;51.368;12.364;2024-01-30T12:20:36;19126.97;;;-141.84;46.24
15260;BME280;34462;51.368;12.364;2024-01-30T12:23:05;19110.72;;;-141.84;46.53
15260;BME280;34462;51.368;12.364;2024-01-30T12:25:33;19114.78;;;-141.84;46.20
15260;BME280;34462;51.368;12.364;2024-01-30T12:28:03;19135.09;;;-141.84;46.51
15260;BME280;34462;51.368;12.364;2024-01-30T12:30:35;19157.44;;;-141.84;46.55
15260;BME280;34462;51.368;12.364;2024-01-30T12:33:03;19165.56;;;-141.84;46.39
15260;BME280;34462;51.368;12.364;2024-01-30T12:35:34;19149.31;;;-141.84;46.29
15260;BME280;34462;51.368;12.364;2024-01-30T12:38:12;19129.00;;;-141.84;46.62
15260;BME280;34462;51.368;12.364;2024-01-30T12:40:40;19147.28;;;-141.84;46.71